sensor_id;sensor_type;location;lat;lon;timestamp;pressure;altitude;pressure_sealevel;temperature;humidity
28310;BME280;15571;50.974;13.936;2022-11-15T01:19:50;100142.16;;;7.58;100.00
28310;BME280;15571;50.974;13.936;2022-11-15T01:23:11;100145.63;;;7.60;100.00
28310;BME280;15571;50.974;13.936;2022-11-15T01:26:31;100136.94;;;7.58;100.00
28310;BME280;15571;50.974;13.936;2022-11-15T01:29:52;100137.81;;;7.60;100.00
28310;BME280;15571;50.974;13.936;2022-11-15T01:33:13;100135.22;;;7.60;100.00
28310;BME280;15571;50.974;13.936;2022-11-15T01:36:35;100130.88;;;7.61;100.00
28310;BME280;15571;50.974;13.936;2022-11-15T01:39:56;100137.81;;;7.62;100.00
28310;BME280;15571;50.974;13.936;2022-11-15T01:43:20;100133.50;;;7.62;100.00
28310;BME280;15571;50.974;13.936;2022-11-15T01:46:41;100121.31;;;7.61;100.00
28310;BME280;15571;50.974;13.936;2022-11-15T01:50:06;100122.19;;;7.62;100.00
28310;BME280;15571;50.974;13.936;2022-11-15T01:53:31;100119.59;;;7.60;100.00
28310;BME280;15571;50.974;13.936;2022-11-15T01:56:53;100111.75;;;7.57;100.00
28310;BME280;15571;50.974;13.936;2022-11-15T02:00:16;100117.81;;;7.53;100.00
28310;BME280;15571;50.974;13.936;2022-11-15T02:03:38;100112.59;;;7.50;100.00
28310;BME280;15571;50.974;13.936;2022-11-15T02:07:03;100112.59;;;7.50;100.00
28310;BME280;15571;50.974;13.936;2022-11-15T02:10:26;100102.16;;;7.50;100.00
28310;BME280;15571;50.974;13.936;2022-11-15T02:13:47;100092.59;;;7.51;100.00
28310;BME280;15571;50.974;13.936;2022-11-15T02:17:11;100095.22;;;7.49;100.00
28310;BME280;15571;50.974;13.936;2022-11-15T02:20:41;100094.34;;;7.48;100.00
28310;BME280;15571;50.974;13.936;2022-11-15T02:31:36;100085.63;;;7.43;100.00
28310;BME280;15571;50.974;13.936;2022-11-15T02:35:01;100072.59;;;7.43;100.00
28310;BME280;15571;50.974;13.936;2022-11-15T02:38:28;100072.59;;;7.45;100.00
28310;BME280;15571;50.974;13.936;2022-11-15T02:41:51;100066.53;;;7.43;100.00
28310;BME280;15571;50.974;13.936;2022-11-15T02:45:18;100069.16;;;7.43;100.00
28310;BME280;15571;50.974;13.936;2022-11-15T02:48:46;100060.44;;;7.41;100.00
28310;BME280;15571;50.974;13.936;2022-11-15T02:52:08;100050.03;;;7.41;100.00
28310;BME280;15571;50.974;13.936;2022-11-15T02:55:30;100045.69;;;7.41;100.00
28310;BME280;15571;50.974;13.936;2022-11-15T02:58:55;100047.44;;;7.39;100.00
28310;BME280;15571;50.974;13.936;2022-11-15T03:02:22;100041.34;;;7.39;100.00
28310;BME280;15571;50.974;13.936;2022-11-15T03:05:50;100037.00;;;7.42;100.00
28310;BME280;15571;50.974;13.936;2022-11-15T03:09:16;100037.00;;;7.41;100.00
28310;BME280;15571;50.974;13.936;2022-11-15T03:12:43;100033.53;;;7.42;100.00
28310;BME280;15571;50.974;13.936;2022-11-15T03:16:08;100032.69;;;7.43;100.00
28310;BME280;15571;50.974;13.936;2022-11-15T03:19:32;100030.06;;;7.41;100.00
28310;BME280;15571;50.974;13.936;2022-11-15T03:22:56;100024.00;;;7.41;100.00
28310;BME280;15571;50.974;13.936;2022-11-15T03:26:20;100030.06;;;7.40;100.00
28310;BME280;15571;50.974;13.936;2022-11-15T03:29:43;100020.50;;;7.39;100.00
28310;BME280;15571;50.974;13.936;2022-11-15T03:33:04;100019.63;;;7.35;100.00
28310;BME280;15571;50.974;13.936;2022-11-15T03:36:26;100025.69;;;7.36;100.00
28310;BME280;15571;50.974;13.936;2022-11-15T03:39:48;100016.16;;;7.35;100.00
28310;BME280;15571;50.974;13.936;2022-11-15T03:43:10;100007.47;;;7.32;100.00
28310;BME280;15571;50.974;13.936;2022-11-15T03:46:36;100004.88;;;7.32;100.00
28310;BME280;15571;50.974;13.936;2022-11-15T03:50:03;100005.72;;;7.33;100.00
28310;BME280;15571;50.974;13.936;2022-11-15T03:53:25;100010.94;;;7.33;100.00
28310;BME280;15571;50.974;13.936;2022-11-15T03:56:47;100003.97;;;7.32;100.00
28310;BME280;15571;50.974;13.936;2022-11-15T04:00:08;100013.50;;;7.28;100.00
28310;BME280;15571;50.974;13.936;2022-11-15T04:03:28;100013.50;;;7.25;100.00
28310;BME280;15571;50.974;13.936;2022-11-15T04:06:49;100013.50;;;7.25;100.00
28310;BME280;15571;50.974;13.936;2022-11-15T04:10:10;100010.03;;;7.26;100.00
28310;BME280;15571;50.974;13.936;2022-11-15T04:13:32;100017.84;;;7.26;100.00
28310;BME280;15571;50.974;13.936;2022-11-15T04:16:53;100009.16;;;7.27;100.00
28310;BME280;15571;50.974;13.936;2022-11-15T04:20:14;100004.81;;;7.26;100.00
28310;BME280;15571;50.974;13.936;2022-11-15T04:23:53;99997.88;;;7.25;100.00
28310;BME280;15571;50.974;13.936;2022-11-15T04:27:31;99997.00;;;7.25;100.00
28310;BME280;15571;50.974;13.936;2022-11-15T04:30:54;99997.00;;;7.22;100.00
28310;BME280;15571;50.974;13.936;2022-11-15T04:34:15;99997.88;;;7.22;100.00
28310;BME280;15571;50.974;13.936;2022-11-15T04:37:35;99997.00;;;7.20;100.00
28310;BME280;15571;50.974;13.936;2022-11-15T04:40:56;99987.44;;;7.18;100.00
28310;BME280;15571;50.974;13.936;2022-11-15T04:44:16;99987.44;;;7.19;100.00
28310;BME280;15571;50.974;13.936;2022-11-15T04:47:41;99987.41;;;7.16;100.00
28310;BME280;15571;50.974;13.936;2022-11-15T04:51:03;99982.22;;;7.14;100.00
28310;BME280;15571;50.974;13.936;2022-11-15T04:54:24;99977.88;;;7.12;100.00
28310;BME280;15571;50.974;13.936;2022-11-15T04:57:45;99973.50;;;7.12;100.00
28310;BME280;15571;50.974;13.936;2022-11-15T05:01:06;99976.97;;;7.10;100.00
28310;BME280;15571;50.974;13.936;2022-11-15T05:04:28;99976.97;;;7.07;100.00
28310;BME280;15571;50.974;13.936;2022-11-15T05:07:48;99974.34;;;7.07;100.00
28310;BME280;15571;50.974;13.936;2022-11-15T05:11:10;99980.44;;;7.09;100.00
28310;BME280;15571;50.974;13.936;2022-11-15T05:14:31;99973.53;;;7.11;100.00
28310;BME280;15571;50.974;13.936;2022-11-15T05:17:58;99968.31;;;7.09;100.00
28310;BME280;15571;50.974;13.936;2022-11-15T05:21:21;99961.34;;;7.07;100.00
28310;BME280;15571;50.974;13.936;2022-11-15T05:24:42;99966.53;;;7.07;100.00
28310;BME280;15571;50.974;13.936;2022-11-15T05:28:03;99970.00;;;7.06;100.00
28310;BME280;15571;50.974;13.936;2022-11-15T05:31:24;99974.31;;;6.97;100.00
28310;BME280;15571;50.974;13.936;2022-11-15T05:34:45;99973.44;;;6.92;100.00
28310;BME280;15571;50.974;13.936;2022-11-15T05:38:07;99973.44;;;6.92;100.00
28310;BME280;15571;50.974;13.936;2022-11-15T05:41:30;99969.09;;;6.93;100.00
28310;BME280;15571;50.974;13.936;2022-11-15T05:44:52;99967.38;;;6.93;100.00
28310;BME280;15571;50.974;13.936;2022-11-15T05:48:13;99969.09;;;6.96;100.00
28310;BME280;15571;50.974;13.936;2022-11-15T05:51:36;99969.97;;;6.96;100.00
28310;BME280;15571;50.974;13.936;2022-11-15T05:54:58;99967.38;;;6.98;100.00
28310;BME280;15571;50.974;13.936;2022-11-15T05:58:19;99965.66;;;6.98;100.00
28310;BME280;15571;50.974;13.936;2022-11-15T06:01:40;99957.84;;;6.98;100.00
28310;BME280;15571;50.974;13.936;2022-11-15T06:05:02;99958.72;;;6.99;100.00
28310;BME280;15571;50.974;13.936;2022-11-15T06:08:23;99952.63;;;6.98;100.00
28310;BME280;15571;50.974;13.936;2022-11-15T06:11:45;99961.31;;;6.96;100.00
28310;BME280;15571;50.974;13.936;2022-11-15T06:15:07;99964.78;;;6.93;100.00
28310;BME280;15571;50.974;13.936;2022-11-15T06:18:31;99976.03;;;6.92;100.00
28310;BME280;15571;50.974;13.936;2022-11-15T06:21:51;99973.41;;;6.89;100.00
28310;BME280;15571;50.974;13.936;2022-11-15T06:25:12;99969.91;;;6.87;100.00
28310;BME280;15571;50.974;13.936;2022-11-15T06:28:34;99964.72;;;6.87;100.00
28310;BME280;15571;50.974;13.936;2022-11-15T06:31:55;99973.38;;;6.86;100.00
28310;BME280;15571;50.974;13.936;2022-11-15T06:35:15;99987.31;;;6.90;100.00
28310;BME280;15571;50.974;13.936;2022-11-15T06:38:36;99980.31;;;6.87;100.00
28310;BME280;15571;50.974;13.936;2022-11-15T06:41:59;99988.16;;;6.89;100.00
28310;BME280;15571;50.974;13.936;2022-11-15T06:45:22;99993.34;;;6.92;100.00
28310;BME280;15571;50.974;13.936;2022-11-15T06:48:43;99994.28;;;6.95;100.00
28310;BME280;15571;50.974;13.936;2022-11-15T06:52:05;99992.53;;;6.97;100.00
28310;BME280;15571;50.974;13.936;2022-11-15T06:55:26;99994.28;;;6.98;100.00
28310;BME280;15571;50.974;13.936;2022-11-15T06:58:46;99989.97;;;6.99;100.00
28310;BME280;15571;50.974;13.936;2022-11-15T07:02:12;99989.97;;;6.99;100.00
28310;BME280;15571;50.974;13.936;2022-11-15T07:05:33;99989.06;;;6.98;100.00
28310;BME280;15571;50.974;13.936;2022-11-15T07:08:54;99993.41;;;6.99;100.00
28310;BME280;15571;50.974;13.936;2022-11-15T07:12:14;99994.28;;;6.98;100.00
28310;BME280;15571;50.974;13.936;2022-11-15T07:15:37;99989.09;;;7.01;100.00
28310;BME280;15571;50.974;13.936;2022-11-15T07:18:59;99996.03;;;7.03;100.00
28310;BME280;15571;50.974;13.936;2022-11-15T07:22:21;99992.59;;;7.04;100.00
28310;BME280;15571;50.974;13.936;2022-11-15T07:25:42;99989.97;;;7.07;100.00
28310;BME280;15571;50.974;13.936;2022-11-15T07:29:02;99997.81;;;7.10;100.00
28310;BME280;15571;50.974;13.936;2022-11-15T07:32:23;99995.19;;;7.11;100.00
28310;BME280;15571;50.974;13.936;2022-11-15T07:35:46;99998.69;;;7.13;100.00
28310;BME280;15571;50.974;13.936;2022-11-15T07:39:08;99994.38;;;7.14;100.00
28310;BME280;15571;50.974;13.936;2022-11-15T07:42:31;99996.97;;;7.15;100.00
28310;BME280;15571;50.974;13.936;2022-11-15T07:46:09;99995.25;;;7.21;100.00
28310;BME280;15571;50.974;13.936;2022-11-15T07:49:30;99993.53;;;7.21;100.00
28310;BME280;15571;50.974;13.936;2022-11-15T07:52:55;99996.16;;;7.24;100.00
28310;BME280;15571;50.974;13.936;2022-11-15T07:56:16;99994.44;;;7.28;100.00
28310;BME280;15571;50.974;13.936;2022-11-15T07:59:37;99987.50;;;7.31;100.00
28310;BME280;15571;50.974;13.936;2022-11-15T08:03:02;99984.91;;;7.36;100.00
28310;BME280;15571;50.974;13.936;2022-11-15T08:06:23;99979.69;;;7.38;100.00
28310;BME280;15571;50.974;13.936;2022-11-15T08:09:45;99973.66;;;7.42;100.00
28310;BME280;15571;50.974;13.936;2022-11-15T08:13:07;99969.31;;;7.45;100.00
28310;BME280;15571;50.974;13.936;2022-11-15T08:16:28;99969.34;;;7.48;100.00
28310;BME280;15571;50.974;13.936;2022-11-15T08:19:48;99979.75;;;7.55;100.00
28310;BME280;15571;50.974;13.936;2022-11-15T08:23:09;99971.94;;;7.56;100.00
28310;BME280;15571;50.974;13.936;2022-11-15T08:26:32;99971.97;;;7.59;100.00
28310;BME280;15571;50.974;13.936;2022-11-15T08:29:53;99975.44;;;7.64;100.00
28310;BME280;15571;50.974;13.936;2022-11-15T08:33:14;99975.47;;;7.66;100.00
28310;BME280;15571;50.974;13.936;2022-11-15T08:36:38;99967.63;;;7.68;100.00
28310;BME280;15571;50.974;13.936;2022-11-15T08:39:59;99955.47;;;7.71;100.00
28310;BME280;15571;50.974;13.936;2022-11-15T08:43:24;99946.81;;;7.74;100.00
28310;BME280;15571;50.974;13.936;2022-11-15T08:46:46;99952.03;;;7.78;100.00
28310;BME280;15571;50.974;13.936;2022-11-15T08:50:07;99949.41;;;7.80;100.00
28310;BME280;15571;50.974;13.936;2022-11-15T08:53:28;99949.41;;;7.75;100.00
28310;BME280;15571;50.974;13.936;2022-11-15T08:56:48;99946.81;;;7.78;100.00
28310;BME280;15571;50.974;13.936;2022-11-15T09:00:12;99945.94;;;7.76;100.00
28310;BME280;15571;50.974;13.936;2022-11-15T09:03:34;99951.16;;;7.78;100.00
28310;BME280;15571;50.974;13.936;2022-11-15T09:06:57;99947.69;;;7.82;100.00
28310;BME280;15571;50.974;13.936;2022-11-15T09:10:18;99939.84;;;7.85;100.00
28310;BME280;15571;50.974;13.936;2022-11-15T09:13:40;99940.72;;;7.89;100.00
28310;BME280;15571;50.974;13.936;2022-11-15T09:17:03;99944.22;;;7.91;100.00
28310;BME280;15571;50.974;13.936;2022-11-15T09:20:27;99938.13;;;7.92;100.00
28310;BME280;15571;50.974;13.936;2022-11-15T09:23:50;99936.41;;;7.91;100.00
28310;BME280;15571;50.974;13.936;2022-11-15T09:27:11;99938.13;;;7.92;100.00
28310;BME280;15571;50.974;13.936;2022-11-15T09:30:32;99934.66;;;7.88;100.00
28310;BME280;15571;50.974;13.936;2022-11-15T09:33:55;99931.19;;;7.88;100.00
28310;BME280;15571;50.974;13.936;2022-11-15T09:37:16;99926.84;;;7.91;100.00
28310;BME280;15571;50.974;13.936;2022-11-15T09:40:36;99918.16;;;7.89;100.00
28310;BME280;15571;50.974;13.936;2022-11-15T09:44:00;99923.38;;;7.92;100.00
28310;BME280;15571;50.974;13.936;2022-11-15T09:51:30;99919.91;;;8.03;100.00
28310;BME280;15571;50.974;13.936;2022-11-15T09:54:34;99914.69;;;8.06;100.00
28310;BME280;15571;50.974;13.936;2022-11-15T09:57:44;99912.94;;;8.08;100.00
28310;BME280;15571;50.974;13.936;2022-11-15T10:00:49;99913.81;;;8.10;100.00
28310;BME280;15571;50.974;13.936;2022-11-15T10:03:55;99911.19;;;8.13;100.00
28310;BME280;15571;50.974;13.936;2022-11-15T10:07:02;99898.19;;;8.15;100.00
28310;BME280;15571;50.974;13.936;2022-11-15T10:10:09;99896.44;;;8.17;100.00
28310;BME280;15571;50.974;13.936;2022-11-15T10:13:18;99897.28;;;8.22;100.00
28310;BME280;15571;50.974;13.936;2022-11-15T10:19:40;99894.66;;;8.28;100.00
28310;BME280;15571;50.974;13.936;2022-11-15T10:22:47;99886.81;;;8.33;100.00
28310;BME280;15571;50.974;13.936;2022-11-15T10:25:53;99879.88;;;8.35;100.00
28310;BME280;15571;50.974;13.936;2022-11-15T10:29:02;99879.03;;;8.37;100.00
28310;BME280;15571;50.974;13.936;2022-11-15T10:32:09;99870.31;;;8.40;100.00
28310;BME280;15571;50.974;13.936;2022-11-15T10:35:16;99866.81;;;8.39;100.00
28310;BME280;15571;50.974;13.936;2022-11-15T10:38:21;99854.66;;;8.41;100.00
28310;BME280;15571;50.974;13.936;2022-11-15T10:41:35;99852.03;;;8.43;100.00
28310;BME280;15571;50.974;13.936;2022-11-15T10:44:41;99847.72;;;8.42;100.00
28310;BME280;15571;50.974;13.936;2022-11-15T10:47:43;99838.13;;;8.43;100.00
28310;BME280;15571;50.974;13.936;2022-11-15T10:50:47;99833.78;;;8.43;100.00
28310;BME280;15571;50.974;13.936;2022-11-15T10:53:51;99835.53;;;8.47;100.00
28310;BME280;15571;50.974;13.936;2022-11-15T10:56:54;99836.41;;;8.48;100.00
28310;BME280;15571;50.974;13.936;2022-11-15T10:59:57;99832.06;;;8.51;100.00
28310;BME280;15571;50.974;13.936;2022-11-15T11:03:02;99830.31;;;8.55;100.00
28310;BME280;15571;50.974;13.936;2022-11-15T11:06:07;99834.66;;;8.57;100.00
28310;BME280;15571;50.974;13.936;2022-11-15T11:09:20;99826.81;;;8.57;100.00
28310;BME280;15571;50.974;13.936;2022-11-15T11:12:26;99825.09;;;8.52;100.00
28310;BME280;15571;50.974;13.936;2022-11-15T11:15:29;99818.97;;;8.59;100.00
28310;BME280;15571;50.974;13.936;2022-11-15T11:18:32;99823.34;;;8.57;100.00
28310;BME280;15571;50.974;13.936;2022-11-15T11:21:39;99810.28;;;8.59;100.00
28310;BME280;15571;50.974;13.936;2022-11-15T11:24:47;99815.53;;;8.57;100.00
28310;BME280;15571;50.974;13.936;2022-11-15T11:27:59;99812.03;;;8.56;100.00
28310;BME280;15571;50.974;13.936;2022-11-15T11:31:08;99808.56;;;8.57;100.00
28310;BME280;15571;50.974;13.936;2022-11-15T11:34:15;99802.44;;;8.60;100.00
28310;BME280;15571;50.974;13.936;2022-11-15T11:37:24;99801.59;;;8.61;100.00
28310;BME280;15571;50.974;13.936;2022-11-15T11:40:34;99789.38;;;8.65;100.00
28310;BME280;15571;50.974;13.936;2022-11-15T11:43:41;99776.34;;;8.66;100.00
28310;BME280;15571;50.974;13.936;2022-11-15T11:46:53;99776.34;;;8.66;100.00
28310;BME280;15571;50.974;13.936;2022-11-15T11:49:56;99766.72;;;8.73;100.00
28310;BME280;15571;50.974;13.936;2022-11-15T11:53:02;99760.66;;;8.72;100.00
28310;BME280;15571;50.974;13.936;2022-11-15T11:56:09;99764.09;;;8.76;100.00
28310;BME280;15571;50.974;13.936;2022-11-15T11:59:21;99760.59;;;8.79;100.00
28310;BME280;15571;50.974;13.936;2022-11-15T12:02:26;99751.91;;;8.80;100.00
28310;BME280;15571;50.974;13.936;2022-11-15T12:05:30;99754.53;;;8.81;100.00
28310;BME280;15571;50.974;13.936;2022-11-15T12:08:39;99751.88;;;8.86;100.00
28310;BME280;15571;50.974;13.936;2022-11-15T12:11:50;99754.47;;;8.87;100.00
28310;BME280;15571;50.974;13.936;2022-11-15T12:14:56;99750.16;;;8.85;100.00
28310;BME280;15571;50.974;13.936;2022-11-15T12:18:03;99750.09;;;8.91;100.00
28310;BME280;15571;50.974;13.936;2022-11-15T12:21:13;99740.50;;;8.92;100.00
28310;BME280;15571;50.974;13.936;2022-11-15T12:24:18;99740.50;;;8.95;100.00
28310;BME280;15571;50.974;13.936;2022-11-15T12:27:26;99738.81;;;8.91;100.00
28310;BME280;15571;50.974;13.936;2022-11-15T12:30:38;99726.66;;;8.83;100.00
28310;BME280;15571;50.974;13.936;2022-11-15T12:33:46;99727.53;;;8.81;100.00
28310;BME280;15571;50.974;13.936;2022-11-15T12:36:49;99725.78;;;8.84;100.00
28310;BME280;15571;50.974;13.936;2022-11-15T12:40:05;99715.34;;;8.83;100.00
28310;BME280;15571;50.974;13.936;2022-11-15T12:47:03;99697.97;;;8.82;100.00
28310;BME280;15571;50.974;13.936;2022-11-15T12:50:10;99691.88;;;8.81;100.00
28310;BME280;15571;50.974;13.936;2022-11-15T12:53:26;99695.34;;;8.83;100.00
28310;BME280;15571;50.974;13.936;2022-11-15T12:56:29;99692.75;;;8.82;100.00
28310;BME280;15571;50.974;13.936;2022-11-15T13:02:49;99681.44;;;8.81;100.00
28310;BME280;15571;50.974;13.936;2022-11-15T13:06:34;99677.94;;;8.82;100.00
28310;BME280;15571;50.974;13.936;2022-11-15T13:09:51;99683.22;;;8.76;100.00
28310;BME280;15571;50.974;13.936;2022-11-15T13:12:57;99686.69;;;8.75;100.00
28310;BME280;15571;50.974;13.936;2022-11-15T13:16:00;99694.56;;;8.70;100.00
28310;BME280;15571;50.974;13.936;2022-11-15T13:19:04;99688.50;;;8.64;100.00
28310;BME280;15571;50.974;13.936;2022-11-15T13:22:11;99686.75;;;8.63;100.00
28310;BME280;15571;50.974;13.936;2022-11-15T13:29:00;99682.47;;;8.54;100.00
28310;BME280;15571;50.974;13.936;2022-11-15T13:32:02;99683.38;;;8.51;100.00
28310;BME280;15571;50.974;13.936;2022-11-15T13:35:17;99689.47;;;8.43;100.00
28310;BME280;15571;50.974;13.936;2022-11-15T13:38:27;99693.84;;;8.39;100.00
28310;BME280;15571;50.974;13.936;2022-11-15T13:41:31;99685.16;;;8.37;100.00
28310;BME280;15571;50.974;13.936;2022-11-15T13:44:33;99682.53;;;8.38;100.00
28310;BME280;15571;50.974;13.936;2022-11-15T13:47:36;99678.19;;;8.36;100.00
28310;BME280;15571;50.974;13.936;2022-11-15T13:50:39;99686.03;;;8.33;100.00
28310;BME280;15571;50.974;13.936;2022-11-15T13:53:48;99672.16;;;8.31;100.00
28310;BME280;15571;50.974;13.936;2022-11-15T13:56:53;99671.25;;;8.35;100.00
28310;BME280;15571;50.974;13.936;2022-11-15T13:59:57;99659.09;;;8.32;100.00
28310;BME280;15571;50.974;13.936;2022-11-15T14:03:06;99663.41;;;8.35;100.00
28310;BME280;15571;50.974;13.936;2022-11-15T14:06:13;99660.84;;;8.32;100.00
28310;BME280;15571;50.974;13.936;2022-11-15T14:09:25;99659.94;;;8.33;100.00
28310;BME280;15571;50.974;13.936;2022-11-15T14:12:32;99655.63;;;8.29;100.00
28310;BME280;15571;50.974;13.936;2022-11-15T14:15:35;99655.66;;;8.25;100.00
28310;BME280;15571;50.974;13.936;2022-11-15T14:20:19;99660.91;;;8.19;100.00
28310;BME280;15571;50.974;13.936;2022-11-15T14:23:26;99658.31;;;8.16;100.00
28310;BME280;15571;50.974;13.936;2022-11-15T14:26:36;99653.09;;;8.15;100.00
28310;BME280;15571;50.974;13.936;2022-11-15T14:29:41;99653.09;;;8.15;100.00
28310;BME280;15571;50.974;13.936;2022-11-15T14:32:47;99654.81;;;8.14;100.00
28310;BME280;15571;50.974;13.936;2022-11-15T14:35:49;99653.09;;;8.15;100.00
28310;BME280;15571;50.974;13.936;2022-11-15T14:38:53;99650.53;;;8.10;100.00
28310;BME280;15571;50.974;13.936;2022-11-15T14:41:56;99648.81;;;8.07;100.00
28310;BME280;15571;50.974;13.936;2022-11-15T14:45:11;99641.88;;;8.02;100.00
28310;BME280;15571;50.974;13.936;2022-11-15T14:48:14;99640.13;;;8.01;100.00
28310;BME280;15571;50.974;13.936;2022-11-15T14:51:17;99633.19;;;7.97;100.00
28310;BME280;15571;50.974;13.936;2022-11-15T14:54:21;99628.00;;;7.87;100.00
28310;BME280;15571;50.974;13.936;2022-11-15T14:57:23;99626.28;;;7.85;100.00
28310;BME280;15571;50.974;13.936;2022-11-15T15:00:26;99631.53;;;7.78;100.00
28310;BME280;15571;50.974;13.936;2022-11-15T15:03:28;99628.94;;;7.75;100.00
28310;BME280;15571;50.974;13.936;2022-11-15T15:06:30;99619.38;;;7.76;100.00
28310;BME280;15571;50.974;13.936;2022-11-15T15:09:34;99617.66;;;7.72;100.00
28310;BME280;15571;50.974;13.936;2022-11-15T15:12:36;99615.94;;;7.68;100.00
28310;BME280;15571;50.974;13.936;2022-11-15T15:15:38;99610.72;;;7.64;100.00
28310;BME280;15571;50.974;13.936;2022-11-15T15:18:40;99616.81;;;7.62;100.00
28310;BME280;15571;50.974;13.936;2022-11-15T15:21:53;99598.59;;;7.57;100.00
28310;BME280;15571;50.974;13.936;2022-11-15T15:24:57;99613.38;;;7.52;100.00
28310;BME280;15571;50.974;13.936;2022-11-15T15:28:03;99611.63;;;7.53;100.00
28310;BME280;15571;50.974;13.936;2022-11-15T15:31:05;99617.72;;;7.50;100.00
28310;BME280;15571;50.974;13.936;2022-11-15T15:34:09;99612.50;;;7.47;100.00
28310;BME280;15571;50.974;13.936;2022-11-15T15:37:18;99618.59;;;7.46;100.00
28310;BME280;15571;50.974;13.936;2022-11-15T15:40:25;99611.69;;;7.42;100.00
28310;BME280;15571;50.974;13.936;2022-11-15T15:43:32;99609.09;;;7.37;100.00
28310;BME280;15571;50.974;13.936;2022-11-15T15:46:34;99608.22;;;7.34;100.00
28310;BME280;15571;50.974;13.936;2022-11-15T15:49:39;99609.94;;;7.30;100.00
28310;BME280;15571;50.974;13.936;2022-11-15T15:52:41;99609.97;;;7.27;100.00
28310;BME280;15571;50.974;13.936;2022-11-15T15:55:46;99600.41;;;7.27;100.00
28310;BME280;15571;50.974;13.936;2022-11-15T15:58:48;99601.28;;;7.28;100.00
28310;BME280;15571;50.974;13.936;2022-11-15T16:01:52;99608.22;;;7.26;100.00
28310;BME280;15571;50.974;13.936;2022-11-15T16:04:54;99610.84;;;7.24;100.00
28310;BME280;15571;50.974;13.936;2022-11-15T16:07:59;99607.38;;;7.19;100.00
28310;BME280;15571;50.974;13.936;2022-11-15T16:11:03;99609.09;;;7.17;100.00
28310;BME280;15571;50.974;13.936;2022-11-15T16:14:07;99617.78;;;7.19;100.00
28310;BME280;15571;50.974;13.936;2022-11-15T16:17:10;99607.38;;;7.16;100.00
28310;BME280;15571;50.974;13.936;2022-11-15T16:20:28;99610.00;;;7.13;100.00
28310;BME280;15571;50.974;13.936;2022-11-15T16:23:31;99617.81;;;7.13;100.00
28310;BME280;15571;50.974;13.936;2022-11-15T16:26:34;99612.59;;;7.13;100.00
28310;BME280;15571;50.974;13.936;2022-11-15T16:29:37;99606.50;;;7.12;100.00
28310;BME280;15571;50.974;13.936;2022-11-15T16:32:39;99604.78;;;7.05;100.00
28310;BME280;15571;50.974;13.936;2022-11-15T16:35:41;99605.66;;;7.06;100.00
28310;BME280;15571;50.974;13.936;2022-11-15T16:38:44;99609.13;;;7.06;100.00
28310;BME280;15571;50.974;13.936;2022-11-15T16:41:53;99612.59;;;7.07;100.00
28310;BME280;15571;50.974;13.936;2022-11-15T16:44:58;99616.06;;;6.99;100.00
28310;BME280;15571;50.974;13.936;2022-11-15T16:48:00;99616.06;;;6.92;100.00
28310;BME280;15571;50.974;13.936;2022-11-15T16:51:03;99616.94;;;6.86;100.00
28310;BME280;15571;50.974;13.936;2022-11-15T16:54:05;99614.31;;;6.86;100.00
28310;BME280;15571;50.974;13.936;2022-11-15T16:57:09;99609.13;;;6.86;100.00
28310;BME280;15571;50.974;13.936;2022-11-15T17:00:13;99609.16;;;6.88;100.00
28310;BME280;15571;50.974;13.936;2022-11-15T17:03:16;99603.06;;;6.87;100.00
28310;BME280;15571;50.974;13.936;2022-11-15T17:06:19;99597.00;;;6.85;100.00
28310;BME280;15571;50.974;13.936;2022-11-15T17:09:24;99597.88;;;6.85;100.00
28310;BME280;15571;50.974;13.936;2022-11-15T17:12:28;99594.38;;;6.83;100.00
28310;BME280;15571;50.974;13.936;2022-11-15T17:15:31;99596.13;;;6.83;100.00
28310;BME280;15571;50.974;13.936;2022-11-15T17:18:39;99584.88;;;6.81;100.00
28310;BME280;15571;50.974;13.936;2022-11-15T17:21:43;99585.72;;;6.81;100.00
28310;BME280;15571;50.974;13.936;2022-11-15T17:24:47;99571.00;;;6.82;100.00
28310;BME280;15571;50.974;13.936;2022-11-15T17:27:54;99568.41;;;6.80;100.00
28310;BME280;15571;50.974;13.936;2022-11-15T17:30:59;99566.66;;;6.78;100.00
28310;BME280;15571;50.974;13.936;2022-11-15T17:34:02;99574.47;;;6.75;100.00
28310;BME280;15571;50.974;13.936;2022-11-15T17:37:04;99571.84;;;6.72;100.00
28310;BME280;15571;50.974;13.936;2022-11-15T17:40:08;99580.53;;;6.69;100.00
28310;BME280;15571;50.974;13.936;2022-11-15T17:43:12;99570.97;;;6.66;100.00
28310;BME280;15571;50.974;13.936;2022-11-15T17:46:15;99576.19;;;6.57;100.00
28310;BME280;15571;50.974;13.936;2022-11-15T17:49:18;99573.59;;;6.51;100.00
28310;BME280;15571;50.974;13.936;2022-11-15T17:52:23;99570.97;;;6.51;100.00
28310;BME280;15571;50.974;13.936;2022-11-15T17:55:25;99567.53;;;6.50;100.00
28310;BME280;15571;50.974;13.936;2022-11-15T17:58:29;99571.84;;;6.47;100.00
28310;BME280;15571;50.974;13.936;2022-11-15T18:01:31;99568.38;;;6.46;100.00
28310;BME280;15571;50.974;13.936;2022-11-15T18:04:36;99564.06;;;6.44;100.00
28310;BME280;15571;50.974;13.936;2022-11-15T18:07:38;99558.00;;;6.45;100.00
28310;BME280;15571;50.974;13.936;2022-11-15T18:10:42;99560.59;;;6.45;100.00
28310;BME280;15571;50.974;13.936;2022-11-15T18:13:48;99560.59;;;6.45;100.00
28310;BME280;15571;50.974;13.936;2022-11-15T18:16:55;99553.66;;;6.39;100.00
28310;BME280;15571;50.974;13.936;2022-11-15T18:19:58;99557.13;;;6.36;100.00
28310;BME280;15571;50.974;13.936;2022-11-15T18:23:01;99557.97;;;6.34;100.00
28310;BME280;15571;50.974;13.936;2022-11-15T18:26:04;99558.81;;;6.33;100.00
28310;BME280;15571;50.974;13.936;2022-11-15T18:29:08;99550.19;;;6.31;100.00
28310;BME280;15571;50.974;13.936;2022-11-15T18:32:12;99550.19;;;6.31;100.00
28310;BME280;15571;50.974;13.936;2022-11-15T18:35:17;99547.59;;;6.31;100.00